createdAt,value
2023-05-10T00:02:14.613Z,8.70
2023-05-10T00:04:41.419Z,9.00
2023-05-10T00:07:08.165Z,8.07
2023-05-10T00:09:34.916Z,8.27
2023-05-10T00:12:01.649Z,8.32
2023-05-10T00:14:28.470Z,8.57
2023-05-10T00:16:55.333Z,8.13
2023-05-10T00:19:22.093Z,7.95
2023-05-10T00:21:48.851Z,7.27
2023-05-10T00:24:15.744Z,8.30
2023-05-10T00:26:43.385Z,7.75
2023-05-10T00:29:10.156Z,8.20
2023-05-10T00:31:36.969Z,8.30
2023-05-10T00:34:03.755Z,8.23
2023-05-10T00:36:30.554Z,8.00
2023-05-10T00:38:57.376Z,8.02
2023-05-10T00:41:24.196Z,7.43
2023-05-10T00:43:50.954Z,7.78
2023-05-10T00:46:18.302Z,8.10
2023-05-10T00:48:45.112Z,7.75
2023-05-10T00:51:11.917Z,8.27
2023-05-10T00:53:38.971Z,7.50
2023-05-10T00:56:06.589Z,7.47
2023-05-10T00:58:33.393Z,7.60
2023-05-10T01:01:00.220Z,7.45
2023-05-10T01:03:27.407Z,7.65
2023-05-10T01:05:54.246Z,7.35
2023-05-10T01:08:21.375Z,7.93
2023-05-10T01:10:50.206Z,7.30
2023-05-10T01:13:34.377Z,6.95
2023-05-10T01:16:03.483Z,6.93
2023-05-10T01:18:31.099Z,6.88
2023-05-10T01:21:15.785Z,6.85
2023-05-10T01:23:52.658Z,7.47
2023-05-10T01:26:37.701Z,7.03
2023-05-10T01:29:31.402Z,7.13
2023-05-10T01:32:32.085Z,7.47
2023-05-10T01:35:03.933Z,6.90
2023-05-10T01:38:08.282Z,7.13
2023-05-10T01:40:48.278Z,6.97
2023-05-10T01:43:24.290Z,6.82
2023-05-10T01:46:06.220Z,6.78
2023-05-10T01:48:32.968Z,6.95
2023-05-10T01:50:59.750Z,6.60
2023-05-10T01:53:26.793Z,7.10
2023-05-10T01:55:54.723Z,6.82
2023-05-10T01:58:23.909Z,7.35
2023-05-10T02:00:51.031Z,6.60
2023-05-10T02:03:17.967Z,7.00
2023-05-10T02:05:46.127Z,7.35
2023-05-10T02:08:12.855Z,6.95
2023-05-10T02:10:39.895Z,6.90
2023-05-10T02:13:07.332Z,7.93
2023-05-10T02:15:34.133Z,6.97
2023-05-10T02:18:01.384Z,7.20
2023-05-10T02:20:28.294Z,7.03
2023-05-10T02:22:55.889Z,6.47
2023-05-10T02:25:23.064Z,7.65
2023-05-10T02:27:49.836Z,6.90
2023-05-10T02:30:17.357Z,7.50
2023-05-10T02:32:44.724Z,7.03
2023-05-10T02:35:11.506Z,7.70
2023-05-10T02:37:38.675Z,7.13
2023-05-10T02:40:06.609Z,7.00
2023-05-10T02:42:34.444Z,6.30
2023-05-10T02:45:02.347Z,6.93
2023-05-10T02:47:29.922Z,7.72
2023-05-10T02:49:56.707Z,7.63
2023-05-10T02:52:26.228Z,7.57
2023-05-10T02:54:55.822Z,7.75
2023-05-10T02:57:34.937Z,7.88
2023-05-10T03:00:03.582Z,6.75
2023-05-10T03:02:31.614Z,7.40
2023-05-10T03:04:58.442Z,7.40
2023-05-10T03:07:25.231Z,7.97
2023-05-10T03:09:52.041Z,8.15
2023-05-10T03:12:40.272Z,7.70
2023-05-10T03:15:31.561Z,7.90
2023-05-10T03:18:03.299Z,7.03
2023-05-10T03:20:37.267Z,8.23
2023-05-10T03:23:25.924Z,8.10
2023-05-10T03:25:52.679Z,8.70
2023-05-10T03:28:19.657Z,8.65
2023-05-10T03:30:46.560Z,9.03
2023-05-10T03:33:14.222Z,9.15
2023-05-10T03:35:41.014Z,9.10
2023-05-10T03:38:07.758Z,9.88
2023-05-10T03:40:34.535Z,9.68
2023-05-10T03:43:01.305Z,10.20
2023-05-10T03:45:28.176Z,10.23
2023-05-10T03:47:55.116Z,9.95
2023-05-10T03:50:22.164Z,9.77
2023-05-10T03:52:49.068Z,10.05
2023-05-10T03:55:16.104Z,11.10
2023-05-10T03:57:42.908Z,9.80
2023-05-10T04:00:10.715Z,10.55
2023-05-10T04:02:38.454Z,9.50
2023-05-10T04:05:05.862Z,9.27
2023-05-10T04:07:32.620Z,8.87
2023-05-10T04:09:59.339Z,8.45
2023-05-10T04:12:26.221Z,8.15
2023-05-10T04:14:52.961Z,7.63
2023-05-10T04:17:19.796Z,8.02
2023-05-10T04:19:46.617Z,7.47
2023-05-10T04:22:13.379Z,7.60
2023-05-10T04:24:40.136Z,7.93
2023-05-10T04:27:06.886Z,7.53
2023-05-10T04:29:33.638Z,7.15
2023-05-10T04:32:00.432Z,6.90
2023-05-10T04:34:27.189Z,7.22
2023-05-10T04:36:53.950Z,6.70
2023-05-10T04:39:20.688Z,6.53
2023-05-10T04:41:47.514Z,6.38
2023-05-10T04:44:14.323Z,6.73
2023-05-10T04:46:41.208Z,6.97
2023-05-10T04:49:07.972Z,6.72
2023-05-10T04:51:34.780Z,6.10
2023-05-10T04:54:06.640Z,5.88
2023-05-10T04:56:34.289Z,6.57
2023-05-10T04:59:01.084Z,5.95
2023-05-10T05:01:27.942Z,6.07
2023-05-10T05:03:54.929Z,5.88
2023-05-10T05:06:25.994Z,6.10
2023-05-10T05:08:52.815Z,6.10
2023-05-10T05:11:19.708Z,6.15
2023-05-10T05:13:46.681Z,6.10
2023-05-10T05:16:13.497Z,6.00
2023-05-10T05:18:40.337Z,6.00
2023-05-10T05:21:19.536Z,5.80
2023-05-10T05:23:46.640Z,5.57
2023-05-10T05:26:13.486Z,5.72
2023-05-10T05:28:40.258Z,5.97
2023-05-10T05:31:08.655Z,5.72
2023-05-10T05:33:35.718Z,4.97
2023-05-10T05:36:03.455Z,5.90
2023-05-10T05:38:30.243Z,5.05
2023-05-10T05:40:57.003Z,5.80
2023-05-10T05:43:23.936Z,5.38
2023-05-10T05:45:50.761Z,5.57
2023-05-10T05:48:17.558Z,5.03
2023-05-10T05:50:44.331Z,5.00
2023-05-10T05:53:11.113Z,4.90
2023-05-10T05:55:38.037Z,5.50
2023-05-10T05:58:04.789Z,5.50
2023-05-10T06:00:31.591Z,5.50
2023-05-10T06:02:58.379Z,4.85
2023-05-10T06:05:25.414Z,5.50
2023-05-10T06:07:52.232Z,4.90
2023-05-10T06:10:19.096Z,5.27
2023-05-10T06:12:46.161Z,5.50
2023-05-10T06:15:13.071Z,5.30
2023-05-10T06:17:39.970Z,5.85
2023-05-10T06:20:07.696Z,5.10
2023-05-10T06:22:34.463Z,5.70
2023-05-10T06:25:01.213Z,4.90
2023-05-10T06:27:27.988Z,5.70
2023-05-10T06:30:02.198Z,5.35
2023-05-10T06:32:36.333Z,5.03
2023-05-10T06:35:03.164Z,5.53
2023-05-10T06:37:29.876Z,5.75
2023-05-10T06:39:57.079Z,4.68
2023-05-10T06:42:26.433Z,4.68
2023-05-10T06:44:53.175Z,5.10
2023-05-10T06:47:19.998Z,5.00
2023-05-10T06:49:46.759Z,5.18
2023-05-10T06:52:13.580Z,4.78
2023-05-10T06:54:40.316Z,4.88
2023-05-10T06:57:16.065Z,5.32
2023-05-10T06:59:46.579Z,4.53
2023-05-10T07:02:13.464Z,4.78
2023-05-10T07:04:40.606Z,4.72
2023-05-10T07:07:07.505Z,5.30
2023-05-10T07:09:34.616Z,4.85
2023-05-10T07:12:03.602Z,5.53
2023-05-10T07:14:31.074Z,5.22
2023-05-10T07:16:57.860Z,4.90
2023-05-10T07:19:24.816Z,4.55
2023-05-10T07:21:52.033Z,4.60
2023-05-10T07:24:18.943Z,4.57
2023-05-10T07:26:45.739Z,4.22
2023-05-10T07:29:12.999Z,4.60
2023-05-10T07:31:39.880Z,4.50
2023-05-10T07:34:06.657Z,3.97
2023-05-10T07:36:33.504Z,4.20
2023-05-10T07:39:00.350Z,4.82
2023-05-10T07:41:27.112Z,4.55
2023-05-10T07:43:53.862Z,4.53
2023-05-10T07:46:20.914Z,4.57
2023-05-10T07:48:47.781Z,4.50
2023-05-10T07:51:14.711Z,3.83
2023-05-10T07:53:41.622Z,4.10
2023-05-10T07:56:42.972Z,4.35
2023-05-10T07:59:11.345Z,4.57
2023-05-10T08:01:39.364Z,4.27
2023-05-10T08:04:06.240Z,4.65
2023-05-10T08:06:33.057Z,4.25
2023-05-10T08:08:59.885Z,4.35
2023-05-10T08:11:26.833Z,4.18
2023-05-10T08:13:54.041Z,4.50
2023-05-10T08:16:21.066Z,4.38
2023-05-10T08:18:48.340Z,3.92
2023-05-10T08:21:15.772Z,3.90
2023-05-10T08:23:42.585Z,3.83
2023-05-10T08:26:09.358Z,3.17
2023-05-10T08:28:36.158Z,4.13
2023-05-10T08:31:02.967Z,3.50
2023-05-10T08:33:29.706Z,3.78
2023-05-10T08:35:56.454Z,3.35
2023-05-10T08:38:23.225Z,3.03
2023-05-10T08:40:51.912Z,3.80
2023-05-10T08:43:18.805Z,3.90
2023-05-10T08:45:48.260Z,3.67
2023-05-10T08:48:15.495Z,3.03
2023-05-10T08:50:43.015Z,3.23
2023-05-10T08:53:14.312Z,3.58
2023-05-10T08:55:43.812Z,3.55
2023-05-10T08:58:10.674Z,3.70
2023-05-10T09:00:38.405Z,4.05
2023-05-10T09:03:05.727Z,3.67
2023-05-10T09:05:32.974Z,3.53
2023-05-10T09:08:02.537Z,3.20
2023-05-10T09:10:29.418Z,3.10
2023-05-10T09:12:59.415Z,3.45
2023-05-10T09:15:26.463Z,3.40
2023-05-10T09:17:53.249Z,3.25
2023-05-10T09:20:20.237Z,3.50
2023-05-10T09:22:47.010Z,3.30
2023-05-10T09:25:14.977Z,3.17
2023-05-10T09:27:42.728Z,3.17
2023-05-10T09:30:10.268Z,3.67
2023-05-10T09:32:48.194Z,3.53
2023-05-10T09:35:19.153Z,3.10
2023-05-10T09:37:48.890Z,3.53
2023-05-10T09:40:20.435Z,3.40
2023-05-10T09:42:59.194Z,3.30
2023-05-10T09:45:27.432Z,3.70
2023-05-10T09:47:54.248Z,2.90
2023-05-10T09:50:21.643Z,3.40
2023-05-10T09:52:52.799Z,3.07
2023-05-10T09:55:24.435Z,3.50
2023-05-10T09:58:00.134Z,3.30
2023-05-10T10:00:27.225Z,3.33
2023-05-10T10:03:00.777Z,3.47
2023-05-10T10:05:34.751Z,2.93
2023-05-10T10:08:05.972Z,3.20
2023-05-10T10:10:33.546Z,3.17
2023-05-10T10:13:00.771Z,3.20
2023-05-10T10:15:27.688Z,3.08
2023-05-10T10:17:54.728Z,3.10
2023-05-10T10:20:23.357Z,3.05
2023-05-10T10:22:50.223Z,2.95
2023-05-10T10:25:18.459Z,2.75
2023-05-10T10:27:54.667Z,3.05
2023-05-10T10:30:50.697Z,3.07
2023-05-10T10:33:36.213Z,3.50
2023-05-10T10:36:03.739Z,2.95
2023-05-10T10:38:49.068Z,2.95
2023-05-10T10:41:37.906Z,2.85
2023-05-10T10:44:24.671Z,3.07
2023-05-10T10:47:14.989Z,3.50
2023-05-10T10:49:45.001Z,3.03
2023-05-10T10:52:37.164Z,2.83
2023-05-10T10:55:08.057Z,3.38
2023-05-10T10:58:05.698Z,2.80
2023-05-10T11:00:41.045Z,3.28
2023-05-10T11:03:15.841Z,3.00
2023-05-10T11:05:46.549Z,2.90
2023-05-10T11:08:32.356Z,3.03
2023-05-10T11:11:01.941Z,3.27
2023-05-10T11:13:35.697Z,3.30
2023-05-10T11:16:24.926Z,3.00
2023-05-10T11:18:57.953Z,3.47
2023-05-10T11:21:24.865Z,3.55
2023-05-10T11:23:53.331Z,3.30
2023-05-10T11:26:20.312Z,3.42
2023-05-10T11:28:48.375Z,3.00
2023-05-10T11:31:16.173Z,3.28
2023-05-10T11:33:46.930Z,3.45
2023-05-10T11:36:20.412Z,3.57
2023-05-10T11:38:47.460Z,3.65
2023-05-10T11:41:14.276Z,3.75
2023-05-10T11:43:41.205Z,3.67
2023-05-10T11:46:08.773Z,3.55
2023-05-10T11:48:35.819Z,2.87
2023-05-10T11:51:03.210Z,3.60
2023-05-10T11:53:33.784Z,3.47
2023-05-10T11:56:05.491Z,3.53
2023-05-10T11:58:32.876Z,3.05
2023-05-10T12:01:00.703Z,3.10
2023-05-10T12:03:28.900Z,2.97
2023-05-10T12:05:56.523Z,2.70
2023-05-10T12:08:27.239Z,3.13
2023-05-10T12:10:54.999Z,3.10
2023-05-10T12:13:22.144Z,2.80
2023-05-10T12:15:48.974Z,3.33
2023-05-10T12:18:16.117Z,2.55
2023-05-10T12:20:43.578Z,2.97
2023-05-10T12:23:11.005Z,3.35
2023-05-10T12:25:38.304Z,2.83
2023-05-10T12:28:06.178Z,3.08
2023-05-10T12:30:50.753Z,3.20
2023-05-10T12:33:18.423Z,2.60
2023-05-10T12:35:52.974Z,2.88
2023-05-10T12:38:44.270Z,2.90
2023-05-10T12:41:12.433Z,2.95
2023-05-10T12:43:39.883Z,3.08
2023-05-10T12:46:14.044Z,2.85
2023-05-10T12:48:41.664Z,2.80
2023-05-10T12:51:12.919Z,3.20
2023-05-10T12:53:41.812Z,3.05
2023-05-10T12:56:11.052Z,2.90
2023-05-10T12:58:37.893Z,2.97
2023-05-10T13:01:05.873Z,2.88
2023-05-10T13:03:32.754Z,3.20
2023-05-10T13:05:59.678Z,2.92
2023-05-10T13:08:26.672Z,2.70
2023-05-10T13:10:53.395Z,2.85
2023-05-10T13:13:20.133Z,3.17
2023-05-10T13:15:46.902Z,3.00
2023-05-10T13:18:14.068Z,2.72
2023-05-10T13:20:40.977Z,3.20
2023-05-10T13:23:07.673Z,3.13
2023-05-10T13:25:35.433Z,3.13
2023-05-10T13:28:02.274Z,3.03
2023-05-10T13:30:29.872Z,3.40
2023-05-10T13:32:56.744Z,3.20
2023-05-10T13:35:23.586Z,3.38
2023-05-10T13:37:50.434Z,3.47
2023-05-10T13:40:17.989Z,3.03
2023-05-10T13:42:44.965Z,2.72
2023-05-10T13:45:13.422Z,3.38
2023-05-10T13:47:40.384Z,3.05
2023-05-10T13:50:07.917Z,2.95
2023-05-10T13:52:34.848Z,3.60
2023-05-10T13:55:01.694Z,2.85
2023-05-10T13:57:29.856Z,2.65
2023-05-10T13:59:58.150Z,2.83
2023-05-10T14:02:25.909Z,2.83
2023-05-10T14:04:52.787Z,2.93
2023-05-10T14:07:19.556Z,3.20
2023-05-10T14:09:46.318Z,2.72
2023-05-10T14:12:13.170Z,2.90
2023-05-10T14:14:40.180Z,2.85
2023-05-10T14:17:07.068Z,2.40
2023-05-10T14:19:35.048Z,3.50
2023-05-10T14:22:01.866Z,3.20
2023-05-10T14:24:28.764Z,2.80
2023-05-10T14:26:55.521Z,3.30
2023-05-10T14:29:23.115Z,2.70
2023-05-10T14:31:51.039Z,3.45
2023-05-10T14:34:17.928Z,2.70
2023-05-10T14:36:44.700Z,2.75
2023-05-10T14:39:14.345Z,3.10
2023-05-10T14:41:43.996Z,3.00
2023-05-10T14:44:11.168Z,3.38
2023-05-10T14:46:38.381Z,2.20
2023-05-10T14:49:05.170Z,2.30
2023-05-10T14:51:32.816Z,2.67
2023-05-10T14:53:59.925Z,2.80
2023-05-10T14:56:29.402Z,2.85
2023-05-10T14:58:56.601Z,2.63
2023-05-10T15:01:24.025Z,2.60
2023-05-10T15:03:51.813Z,2.80
2023-05-10T15:06:19.272Z,2.80
2023-05-10T15:08:46.886Z,2.70
2023-05-10T15:11:13.695Z,2.70
2023-05-10T15:13:40.569Z,3.15
2023-05-10T15:16:07.457Z,2.60
2023-05-10T15:18:34.300Z,2.83
2023-05-10T15:21:01.132Z,2.90
2023-05-10T15:23:28.152Z,2.70
2023-05-10T15:25:56.877Z,2.35
2023-05-10T15:28:23.775Z,2.83
2023-05-10T15:30:51.001Z,3.00
2023-05-10T15:33:17.819Z,3.40
2023-05-10T15:35:44.581Z,2.75
2023-05-10T15:38:11.390Z,2.60
2023-05-10T15:40:38.344Z,2.95
2023-05-10T15:43:06.379Z,2.63
2023-05-10T15:45:34.598Z,2.53
2023-05-10T15:48:03.698Z,2.58
2023-05-10T15:50:30.447Z,2.80
2023-05-10T15:52:57.385Z,2.50
2023-05-10T15:55:24.076Z,3.20
2023-05-10T15:57:51.497Z,3.30
2023-05-10T16:00:19.120Z,3.13
2023-05-10T16:02:46.129Z,3.10
2023-05-10T16:05:14.009Z,2.53
2023-05-10T16:07:42.134Z,2.50
2023-05-10T16:10:10.817Z,3.03
2023-05-10T16:12:37.988Z,3.00
2023-05-10T16:15:05.261Z,2.55
2023-05-10T16:17:32.407Z,2.50
2023-05-10T16:19:59.176Z,2.50
2023-05-10T16:22:27.451Z,2.50
2023-05-10T16:24:54.306Z,2.65
2023-05-10T16:27:21.163Z,3.00
2023-05-10T16:29:48.245Z,2.85
2023-05-10T16:32:14.939Z,2.50
2023-05-10T16:34:41.795Z,2.78
2023-05-10T16:37:08.622Z,2.28
2023-05-10T16:39:35.352Z,2.80
2023-05-10T16:42:02.176Z,2.63
2023-05-10T16:44:28.991Z,2.50
2023-05-10T16:46:56.085Z,2.72
2023-05-10T16:49:24.498Z,2.28
2023-05-10T16:51:52.813Z,2.70
2023-05-10T16:54:20.810Z,2.70
2023-05-10T16:56:47.729Z,2.80
2023-05-10T16:59:14.445Z,2.58
2023-05-10T17:01:41.249Z,2.30
2023-05-10T17:04:08.434Z,2.80
2023-05-10T17:06:36.941Z,3.13
2023-05-10T17:09:15.905Z,2.80
2023-05-10T17:11:42.721Z,3.00
2023-05-10T17:14:10.262Z,2.75
2023-05-10T17:16:37.079Z,2.42
2023-05-10T17:19:03.898Z,2.20
2023-05-10T17:21:31.921Z,2.80
2023-05-10T17:23:58.625Z,2.50
2023-05-10T17:26:27.609Z,2.60
2023-05-10T17:28:55.010Z,2.55
2023-05-10T17:31:21.812Z,2.58
2023-05-10T17:33:53.317Z,2.60
2023-05-10T17:36:20.099Z,2.90
2023-05-10T17:38:46.960Z,2.40
2023-05-10T17:41:14.529Z,2.75
2023-05-10T17:43:41.267Z,2.72
2023-05-10T17:46:08.081Z,2.83
2023-05-10T17:48:36.959Z,2.72
2023-05-10T17:51:04.403Z,2.95
2023-05-10T17:53:31.321Z,2.58
2023-05-10T17:55:59.059Z,3.13
2023-05-10T17:58:25.862Z,2.87
2023-05-10T18:00:52.959Z,3.30
2023-05-10T18:03:19.751Z,3.40
2023-05-10T18:05:47.106Z,3.60
2023-05-10T18:08:14.321Z,3.40
2023-05-10T18:10:41.555Z,3.47
2023-05-10T18:13:08.944Z,3.45
2023-05-10T18:15:35.823Z,3.35
2023-05-10T18:18:04.233Z,3.55
2023-05-10T18:20:31.760Z,3.58
2023-05-10T18:22:58.667Z,3.70
2023-05-10T18:25:25.819Z,4.00
2023-05-10T18:27:52.819Z,4.00
2023-05-10T18:30:19.646Z,4.35
2023-05-10T18:32:46.444Z,4.30
2023-05-10T18:35:13.163Z,4.23
2023-05-10T18:37:39.948Z,4.70
2023-05-10T18:40:12.619Z,4.50
2023-05-10T18:42:39.377Z,4.85
2023-05-10T18:45:06.806Z,4.80
2023-05-10T18:47:33.679Z,5.00
2023-05-10T18:50:00.597Z,5.18
2023-05-10T18:52:27.378Z,4.95
2023-05-10T18:54:54.071Z,5.00
2023-05-10T18:57:22.094Z,5.10
2023-05-10T18:59:49.178Z,5.20
2023-05-10T19:02:15.924Z,5.07
2023-05-10T19:04:42.815Z,4.97
2023-05-10T19:07:09.782Z,5.45
2023-05-10T19:09:36.667Z,5.28
2023-05-10T19:12:03.482Z,5.33
2023-05-10T19:14:30.242Z,5.35
2023-05-10T19:16:57.030Z,4.95
2023-05-10T19:19:25.308Z,5.13
2023-05-10T19:21:52.075Z,5.18
2023-05-10T19:24:21.872Z,5.57
2023-05-10T19:26:49.362Z,5.28
2023-05-10T19:29:16.482Z,5.30
2023-05-10T19:31:44.221Z,5.47
2023-05-10T19:34:11.770Z,5.40
2023-05-10T19:36:38.534Z,6.07
2023-05-10T19:39:05.481Z,5.43
2023-05-10T19:41:32.270Z,5.50
2023-05-10T19:43:59.901Z,5.70
2023-05-10T19:46:27.169Z,5.25
2023-05-10T19:48:53.932Z,5.27
2023-05-10T19:51:20.691Z,5.57
2023-05-10T19:53:47.444Z,5.20
2023-05-10T19:56:14.401Z,5.20
2023-05-10T19:58:41.227Z,5.70
2023-05-10T20:01:08.381Z,5.33
2023-05-10T20:03:35.841Z,5.93
2023-05-10T20:06:03.008Z,5.47
2023-05-10T20:08:30.036Z,5.57
2023-05-10T20:11:02.676Z,5.50
2023-05-10T20:13:29.644Z,5.50
2023-05-10T20:15:59.946Z,5.72
2023-05-10T20:18:27.172Z,5.63
2023-05-10T20:20:55.228Z,6.20
2023-05-10T20:23:22.411Z,5.63
2023-05-10T20:25:49.246Z,5.30
2023-05-10T20:28:16.005Z,5.28
2023-05-10T20:30:42.874Z,5.72
2023-05-10T20:33:09.842Z,6.20
2023-05-10T20:35:36.702Z,6.18
2023-05-10T20:38:04.180Z,6.70
2023-05-10T20:40:31.903Z,6.13
2023-05-10T20:42:58.732Z,6.53
2023-05-10T20:45:25.526Z,6.55
2023-05-10T20:47:53.581Z,6.13
2023-05-10T20:50:20.791Z,6.20
2023-05-10T20:52:48.046Z,6.80
2023-05-10T20:55:14.933Z,6.85
2023-05-10T20:57:41.760Z,6.50
2023-05-10T21:00:09.622Z,6.75
2023-05-10T21:02:36.463Z,6.60
2023-05-10T21:05:03.378Z,6.53
2023-05-10T21:07:32.399Z,6.60
2023-05-10T21:09:59.235Z,5.95
2023-05-10T21:12:26.121Z,6.28
2023-05-10T21:14:52.868Z,5.93
2023-05-10T21:17:20.355Z,6.20
2023-05-10T21:19:47.329Z,5.70
2023-05-10T21:22:14.059Z,6.10
2023-05-10T21:24:40.999Z,6.15
2023-05-10T21:27:09.131Z,5.80
2023-05-10T21:29:35.894Z,5.53
2023-05-10T21:32:02.888Z,5.43
2023-05-10T21:34:29.940Z,6.28
2023-05-10T21:36:56.701Z,6.25
2023-05-10T21:39:23.445Z,6.20
2023-05-10T21:41:50.186Z,6.22
2023-05-10T21:44:16.916Z,5.55
2023-05-10T21:46:44.322Z,5.57
2023-05-10T21:49:11.143Z,6.03
2023-05-10T21:51:37.943Z,6.20
2023-05-10T21:54:04.934Z,5.93
2023-05-10T21:56:31.633Z,5.65
2023-05-10T21:58:58.641Z,5.88
2023-05-10T22:01:25.911Z,6.15
2023-05-10T22:03:52.700Z,5.80
2023-05-10T22:06:19.459Z,5.70
2023-05-10T22:08:46.298Z,6.00
2023-05-10T22:11:13.079Z,6.00
2023-05-10T22:13:39.856Z,5.40
2023-05-10T22:16:07.043Z,5.60
2023-05-10T22:18:33.860Z,5.32
2023-05-10T22:21:00.927Z,5.45
2023-05-10T22:23:27.654Z,5.60
2023-05-10T22:25:54.371Z,5.28
2023-05-10T22:28:21.414Z,5.83
2023-05-10T22:30:48.544Z,5.88
2023-05-10T22:33:15.286Z,5.45
2023-05-10T22:35:42.046Z,5.35
2023-05-10T22:38:08.776Z,5.80
2023-05-10T22:40:35.538Z,5.90
2023-05-10T22:43:02.787Z,5.57
2023-05-10T22:45:29.551Z,5.35
2023-05-10T22:47:56.420Z,5.38
2023-05-10T22:50:23.525Z,5.68
2023-05-10T22:52:50.350Z,5.83
2023-05-10T22:55:17.418Z,5.70
2023-05-10T22:57:44.189Z,5.53
2023-05-10T23:00:11.486Z,5.63
2023-05-10T23:02:38.305Z,5.90
2023-05-10T23:05:05.844Z,5.63
2023-05-10T23:07:32.894Z,5.10
2023-05-10T23:09:59.677Z,5.25
2023-05-10T23:12:26.424Z,5.60
2023-05-10T23:14:53.394Z,5.90
2023-05-10T23:17:20.177Z,5.60
2023-05-10T23:19:47.145Z,5.38
2023-05-10T23:22:13.898Z,5.57
2023-05-10T23:24:40.718Z,5.75
2023-05-10T23:27:07.543Z,5.93
2023-05-10T23:29:34.854Z,6.00
2023-05-10T23:32:01.682Z,5.45
2023-05-10T23:34:28.415Z,5.50
2023-05-10T23:36:55.181Z,5.45
2023-05-10T23:39:22.083Z,5.45
2023-05-10T23:41:48.799Z,5.77
2023-05-10T23:44:15.682Z,6.00
2023-05-10T23:46:42.426Z,6.13
2023-05-10T23:49:09.176Z,5.95
2023-05-10T23:51:36.143Z,5.60
2023-05-10T23:54:03.034Z,5.70
2023-05-10T23:56:29.878Z,5.68
2023-05-10T23:58:56.578Z,5.60
